createdAt,value
2022-10-09T00:01:14.254Z,8.00
2022-10-09T00:03:43.735Z,8.82
2022-10-09T00:06:13.877Z,7.20
2022-10-09T00:08:43.489Z,7.18
2022-10-09T00:11:14.715Z,6.88
2022-10-09T00:13:42.196Z,7.78
2022-10-09T00:16:11.832Z,7.13
2022-10-09T00:18:39.657Z,7.18
2022-10-09T00:21:15.202Z,7.00
2022-10-09T00:23:42.291Z,7.07
2022-10-09T00:26:09.423Z,7.60
2022-10-09T00:28:38.735Z,7.30
2022-10-09T00:31:07.671Z,7.55
2022-10-09T00:33:35.521Z,8.00
2022-10-09T00:36:07.808Z,7.22
2022-10-09T00:38:35.417Z,8.68
2022-10-09T00:41:02.455Z,7.63
2022-10-09T00:43:46.787Z,7.13
2022-10-09T00:46:22.935Z,6.50
2022-10-09T00:49:05.113Z,6.65
2022-10-09T00:51:34.507Z,8.00
2022-10-09T00:54:07.921Z,7.45
2022-10-09T00:56:35.745Z,6.80
2022-10-09T00:59:03.691Z,6.97
2022-10-09T01:01:30.807Z,7.55
2022-10-09T01:03:57.854Z,6.90
2022-10-09T01:06:57.137Z,8.13
2022-10-09T01:09:29.389Z,8.82
2022-10-09T01:12:01.080Z,8.27
2022-10-09T01:14:42.290Z,9.32
2022-10-09T01:17:29.775Z,7.50
2022-10-09T01:20:23.401Z,7.57
2022-10-09T01:23:07.104Z,7.13
2022-10-09T01:25:49.659Z,8.07
2022-10-09T01:28:18.552Z,8.18
2022-10-09T01:30:46.735Z,8.13
2022-10-09T01:33:15.554Z,6.88
2022-10-09T01:35:45.092Z,7.18
2022-10-09T01:38:12.083Z,6.70
2022-10-09T01:40:39.743Z,7.47
2022-10-09T01:43:06.716Z,6.45
2022-10-09T01:45:43.550Z,7.55
2022-10-09T01:48:15.409Z,7.80
2022-10-09T01:50:46.186Z,7.90
2022-10-09T01:53:19.716Z,7.05
2022-10-09T01:56:13.217Z,7.80
2022-10-09T01:58:53.344Z,7.55
2022-10-09T02:01:32.583Z,8.02
2022-10-09T02:04:01.910Z,7.07
2022-10-09T02:06:31.494Z,6.30
2022-10-09T02:08:59.474Z,6.70
2022-10-09T02:11:30.248Z,6.68
2022-10-09T02:13:58.809Z,7.07
2022-10-09T02:16:43.777Z,7.38
2022-10-09T02:19:29.827Z,6.93
2022-10-09T02:22:30.856Z,7.30
2022-10-09T02:25:00.728Z,7.50
2022-10-09T02:27:29.095Z,6.20
2022-10-09T02:29:56.513Z,6.30
2022-10-09T02:32:23.944Z,5.78
2022-10-09T02:34:51.709Z,5.85
2022-10-09T02:37:18.805Z,7.20
2022-10-09T02:39:45.839Z,5.85
2022-10-09T02:42:12.851Z,6.78
2022-10-09T02:44:39.903Z,7.97
2022-10-09T02:47:06.960Z,8.18
2022-10-09T02:49:35.742Z,6.90
2022-10-09T02:52:02.690Z,6.95
2022-10-09T02:54:29.751Z,7.45
2022-10-09T02:56:56.728Z,8.18
2022-10-09T02:59:23.739Z,7.55
2022-10-09T03:01:50.864Z,7.55
2022-10-09T03:04:17.943Z,6.70
2022-10-09T03:06:44.924Z,7.53
2022-10-09T03:09:11.938Z,8.27
2022-10-09T03:11:38.947Z,7.93
2022-10-09T03:14:05.976Z,6.30
2022-10-09T03:16:33.070Z,7.70
2022-10-09T03:19:00.390Z,7.75
2022-10-09T03:21:28.445Z,7.50
2022-10-09T03:23:56.112Z,7.78
2022-10-09T03:26:25.503Z,7.13
2022-10-09T03:28:54.117Z,6.15
2022-10-09T03:31:46.917Z,7.50
2022-10-09T03:34:12.306Z,7.88
2022-10-09T03:36:39.825Z,6.80
2022-10-09T03:39:06.801Z,7.95
2022-10-09T03:41:33.981Z,7.80
2022-10-09T03:44:01.170Z,6.95
2022-10-09T03:46:28.667Z,7.35
2022-10-09T03:48:55.829Z,7.93
2022-10-09T03:51:22.831Z,7.55
2022-10-09T03:53:49.821Z,7.10
2022-10-09T03:56:16.938Z,6.65
2022-10-09T03:58:43.914Z,7.72
2022-10-09T04:01:10.950Z,6.50
2022-10-09T04:03:38.087Z,6.10
2022-10-09T04:06:05.361Z,5.03
2022-10-09T04:08:32.339Z,6.30
2022-10-09T04:11:00.500Z,6.93
2022-10-09T04:13:27.877Z,7.00
2022-10-09T04:15:55.107Z,6.93
2022-10-09T04:18:22.730Z,6.00
2022-10-09T04:20:54.986Z,6.03
2022-10-09T04:23:25.116Z,5.80
2022-10-09T04:25:58.541Z,5.78
2022-10-09T04:28:29.743Z,6.32
2022-10-09T04:31:00.193Z,6.95
2022-10-09T04:33:27.619Z,6.07
2022-10-09T04:35:55.477Z,6.57
2022-10-09T04:38:23.019Z,6.72
2022-10-09T04:41:04.681Z,7.05
2022-10-09T04:43:32.574Z,6.65
2022-10-09T04:45:59.646Z,5.80
2022-10-09T04:48:26.777Z,5.95
2022-10-09T04:50:53.715Z,6.00
2022-10-09T04:53:20.889Z,5.55
2022-10-09T04:55:48.035Z,6.18
2022-10-09T04:58:15.051Z,6.35
2022-10-09T05:00:44.194Z,6.10
2022-10-09T05:03:12.098Z,6.20
2022-10-09T05:05:39.341Z,6.55
2022-10-09T05:08:06.660Z,6.05
2022-10-09T05:10:33.708Z,6.07
2022-10-09T05:13:00.809Z,6.38
2022-10-09T05:15:27.865Z,6.60
2022-10-09T05:17:54.951Z,6.90
2022-10-09T05:20:22.169Z,5.68
2022-10-09T05:22:49.588Z,6.65
2022-10-09T05:25:17.129Z,6.63
2022-10-09T05:27:44.097Z,5.65
2022-10-09T05:30:11.809Z,7.03
2022-10-09T05:32:38.861Z,6.03
2022-10-09T05:35:06.291Z,5.30
2022-10-09T05:37:33.278Z,6.35
2022-10-09T05:40:00.321Z,5.93
2022-10-09T05:42:27.383Z,5.95
2022-10-09T05:44:54.415Z,6.05
2022-10-09T05:47:21.792Z,5.78
2022-10-09T05:49:48.760Z,7.00
2022-10-09T05:52:15.743Z,6.63
2022-10-09T05:54:43.130Z,6.78
2022-10-09T05:57:10.400Z,7.03
2022-10-09T05:59:37.379Z,6.00
2022-10-09T06:02:04.857Z,6.05
2022-10-09T06:04:31.906Z,5.72
2022-10-09T06:06:58.908Z,6.70
2022-10-09T06:09:26.991Z,4.82
2022-10-09T06:11:55.541Z,6.45
2022-10-09T06:14:22.882Z,6.57
2022-10-09T06:16:50.827Z,6.30
2022-10-09T06:19:19.571Z,5.82
2022-10-09T06:21:47.509Z,6.22
2022-10-09T06:24:24.462Z,5.82
2022-10-09T06:26:55.041Z,5.80
2022-10-09T06:29:22.242Z,5.72
2022-10-09T06:31:49.222Z,5.95
2022-10-09T06:34:16.260Z,5.72
2022-10-09T06:36:43.429Z,6.07
2022-10-09T06:39:10.905Z,5.25
2022-10-09T06:41:37.918Z,5.72
2022-10-09T06:44:07.653Z,6.40
2022-10-09T06:46:41.109Z,5.40
2022-10-09T06:49:10.301Z,5.60
2022-10-09T06:51:37.842Z,5.80
2022-10-09T06:54:10.667Z,6.47
2022-10-09T06:56:37.862Z,6.00
2022-10-09T06:59:07.607Z,5.60
2022-10-09T07:01:35.121Z,6.07
2022-10-09T07:04:07.292Z,5.72
2022-10-09T07:06:38.776Z,6.65
2022-10-09T07:09:08.849Z,6.13
2022-10-09T07:11:38.466Z,5.80
2022-10-09T07:14:07.666Z,5.20
2022-10-09T07:16:37.801Z,5.68
2022-10-09T07:19:07.889Z,5.53
2022-10-09T07:21:36.085Z,5.78
2022-10-09T07:24:04.453Z,5.65
2022-10-09T07:26:33.886Z,4.90
2022-10-09T07:29:01.294Z,6.57
2022-10-09T07:31:28.400Z,5.18
2022-10-09T07:33:57.142Z,5.50
2022-10-09T07:36:24.889Z,4.95
2022-10-09T07:38:53.577Z,6.13
2022-10-09T07:41:21.869Z,5.38
2022-10-09T07:43:49.082Z,5.40
2022-10-09T07:46:18.775Z,5.45
2022-10-09T07:48:46.402Z,5.00
2022-10-09T07:51:22.423Z,4.75
2022-10-09T07:53:49.938Z,5.50
2022-10-09T07:56:22.230Z,5.00
2022-10-09T07:58:50.799Z,5.80
2022-10-09T08:01:20.386Z,5.65
2022-10-09T08:03:48.469Z,5.93
2022-10-09T08:06:16.308Z,5.20
2022-10-09T08:08:43.670Z,4.70
2022-10-09T08:11:16.093Z,4.93
2022-10-09T08:13:44.143Z,5.43
2022-10-09T08:16:11.619Z,5.35
2022-10-09T08:18:38.796Z,5.60
2022-10-09T08:21:08.613Z,5.80
2022-10-09T08:23:36.062Z,6.18
2022-10-09T08:26:04.323Z,5.10
2022-10-09T08:28:32.039Z,5.88
2022-10-09T08:30:59.153Z,5.53
2022-10-09T08:33:26.328Z,5.35
2022-10-09T08:35:54.674Z,4.97
2022-10-09T08:38:45.707Z,4.80
2022-10-09T08:41:17.668Z,6.63
2022-10-09T08:43:53.414Z,5.97
2022-10-09T08:46:26.944Z,5.45
2022-10-09T08:48:55.250Z,5.97
2022-10-09T08:51:29.948Z,6.32
2022-10-09T08:54:20.249Z,5.88
2022-10-09T08:56:49.967Z,6.28
2022-10-09T08:59:16.971Z,5.88
2022-10-09T09:02:04.126Z,7.45
2022-10-09T09:05:03.303Z,7.30
2022-10-09T09:08:08.369Z,6.95
2022-10-09T09:10:42.021Z,6.95
2022-10-09T09:15:54.939Z,7.05
2022-10-09T09:18:22.493Z,6.85
2022-10-09T09:20:58.828Z,7.13
2022-10-09T09:23:33.075Z,6.20
2022-10-09T09:26:02.151Z,6.30
2022-10-09T09:28:32.185Z,5.80
2022-10-09T09:31:06.469Z,6.43
2022-10-09T09:33:44.603Z,6.95
2022-10-09T09:36:24.071Z,6.55
2022-10-09T09:39:36.256Z,6.60
2022-10-09T09:41:41.359Z,6.95
2022-10-09T09:44:11.142Z,6.20
2022-10-09T09:46:39.855Z,6.18
2022-10-09T09:49:22.079Z,6.65
2022-10-09T09:51:50.125Z,7.05
2022-10-09T09:54:21.864Z,6.60
2022-10-09T09:59:40.452Z,7.20
2022-10-09T10:02:20.237Z,7.38
2022-10-09T10:05:02.083Z,7.13
2022-10-09T10:07:37.666Z,6.47
2022-10-09T10:10:18.744Z,7.32
2022-10-09T10:12:58.244Z,6.18
2022-10-09T10:15:30.757Z,6.70
2022-10-09T10:18:17.714Z,6.20
2022-10-09T10:20:51.313Z,6.47
2022-10-09T10:26:40.217Z,6.53
2022-10-09T10:29:20.085Z,6.22
2022-10-09T10:32:22.762Z,6.30
2022-10-09T10:35:10.704Z,5.38
2022-10-09T10:37:50.705Z,6.03
2022-10-09T10:40:30.734Z,5.95
2022-10-09T10:43:06.436Z,5.65
2022-10-09T10:46:00.561Z,5.55
2022-10-09T10:48:37.258Z,5.45
2022-10-09T10:51:36.103Z,5.57
2022-10-09T10:54:36.714Z,5.82
2022-10-09T10:57:35.300Z,5.80
2022-10-09T11:00:06.648Z,6.20
2022-10-09T11:02:55.729Z,5.80
2022-10-09T11:05:27.909Z,5.82
2022-10-09T11:08:34.478Z,6.50
2022-10-09T11:11:40.444Z,5.82
2022-10-09T11:14:22.203Z,6.10
2022-10-09T11:17:26.743Z,6.07
2022-10-09T11:22:51.204Z,5.22
2022-10-09T11:25:21.578Z,5.78
2022-10-09T11:28:15.275Z,5.50
2022-10-09T11:30:50.388Z,5.82
2022-10-09T11:33:17.309Z,4.95
2022-10-09T11:35:53.211Z,6.38
2022-10-09T11:38:48.121Z,5.50
2022-10-09T11:41:18.520Z,6.10
2022-10-09T11:44:10.462Z,5.97
2022-10-09T11:47:01.777Z,6.07
2022-10-09T11:49:51.024Z,5.90
2022-10-09T11:52:28.674Z,5.28
2022-10-09T11:54:55.702Z,5.88
2022-10-09T11:57:29.973Z,6.13
2022-10-09T12:00:07.236Z,5.95
2022-10-09T12:02:35.031Z,6.68
2022-10-09T12:05:02.208Z,6.07
2022-10-09T12:07:36.079Z,5.60
2022-10-09T12:10:07.924Z,5.88
2022-10-09T12:12:38.001Z,5.97
2022-10-09T12:15:36.238Z,4.75
2022-10-09T12:18:16.397Z,5.80
2022-10-09T12:20:48.341Z,5.97
2022-10-09T12:23:26.650Z,5.53
2022-10-09T12:25:55.361Z,6.00
2022-10-09T12:28:38.164Z,5.82
2022-10-09T12:31:16.144Z,5.50
2022-10-09T12:33:48.241Z,6.07
2022-10-09T12:36:27.135Z,5.38
2022-10-09T12:38:54.966Z,5.63
2022-10-09T12:41:28.069Z,6.05
2022-10-09T12:43:57.160Z,5.88
2022-10-09T12:46:36.863Z,5.55
2022-10-09T12:49:14.566Z,5.65
2022-10-09T12:51:41.637Z,5.40
2022-10-09T12:54:10.191Z,5.82
2022-10-09T12:56:39.112Z,5.97
2022-10-09T12:59:11.597Z,5.97
2022-10-09T13:01:41.167Z,5.90
2022-10-09T13:04:11.154Z,5.50
2022-10-09T13:06:46.794Z,5.35
2022-10-09T13:09:38.809Z,5.40
2022-10-09T13:12:15.919Z,4.68
2022-10-09T13:14:53.904Z,5.72
2022-10-09T13:17:37.724Z,5.28
2022-10-09T13:20:16.862Z,5.55
2022-10-09T13:22:57.605Z,6.05
2022-10-09T13:25:27.653Z,6.70
2022-10-09T13:27:54.890Z,5.13
2022-10-09T13:30:22.035Z,5.45
2022-10-09T13:32:49.938Z,5.90
2022-10-09T13:35:18.005Z,6.68
2022-10-09T13:37:45.176Z,5.65
2022-10-09T13:40:18.187Z,5.55
2022-10-09T13:42:54.360Z,6.75
2022-10-09T13:45:21.738Z,6.22
2022-10-09T13:47:49.084Z,5.82
2022-10-09T13:50:18.126Z,5.82
2022-10-09T13:52:45.145Z,5.85
2022-10-09T13:55:12.670Z,5.68
2022-10-09T13:57:39.707Z,6.80
2022-10-09T14:00:07.738Z,6.45
2022-10-09T14:02:34.800Z,5.15
2022-10-09T14:05:01.864Z,5.22
2022-10-09T14:07:28.819Z,6.80
2022-10-09T14:09:55.837Z,5.32
2022-10-09T14:12:22.807Z,5.63
2022-10-09T14:14:49.820Z,5.47
2022-10-09T14:17:16.845Z,5.47
2022-10-09T14:19:43.886Z,5.97
2022-10-09T14:22:11.787Z,6.65
2022-10-09T14:24:38.804Z,6.25
2022-10-09T14:27:05.870Z,5.75
2022-10-09T14:29:33.040Z,5.57
2022-10-09T14:31:59.994Z,5.80
2022-10-09T14:34:27.017Z,6.30
2022-10-09T14:36:54.066Z,5.72
2022-10-09T14:39:21.088Z,5.47
2022-10-09T14:41:48.133Z,5.28
2022-10-09T14:44:15.192Z,5.32
2022-10-09T14:46:42.190Z,5.43
2022-10-09T14:49:11.180Z,5.38
2022-10-09T14:51:40.037Z,5.68
2022-10-09T14:54:08.378Z,5.75
2022-10-09T14:56:35.932Z,5.60
2022-10-09T14:59:03.423Z,6.32
2022-10-09T15:01:30.564Z,5.40
2022-10-09T15:04:00.259Z,5.20
2022-10-09T15:06:28.417Z,6.05
2022-10-09T15:09:03.196Z,6.05
2022-10-09T15:11:32.475Z,5.68
2022-10-09T15:13:59.502Z,5.80
2022-10-09T15:16:27.112Z,5.15
2022-10-09T15:18:55.250Z,5.75
2022-10-09T15:21:24.834Z,5.45
2022-10-09T15:23:55.125Z,5.85
2022-10-09T15:26:22.878Z,5.82
2022-10-09T15:28:50.094Z,6.53
2022-10-09T15:31:24.487Z,5.25
2022-10-09T15:33:52.985Z,5.75
2022-10-09T15:36:20.977Z,5.43
2022-10-09T15:38:48.610Z,5.78
2022-10-09T15:41:27.544Z,5.47
2022-10-09T15:43:57.246Z,6.00
2022-10-09T15:46:24.911Z,5.57
2022-10-09T15:48:52.086Z,5.95
2022-10-09T15:51:19.918Z,5.68
2022-10-09T15:53:48.637Z,5.80
2022-10-09T15:56:18.313Z,5.68
2022-10-09T15:58:45.334Z,5.95
2022-10-09T16:01:14.278Z,5.65
2022-10-09T16:03:41.551Z,6.38
2022-10-09T16:06:12.185Z,5.82
2022-10-09T16:08:39.887Z,5.40
2022-10-09T16:13:43.991Z,5.70
2022-10-09T16:16:15.431Z,6.15
2022-10-09T16:18:42.480Z,5.50
2022-10-09T16:21:15.466Z,6.55
2022-10-09T16:23:43.621Z,5.50
2022-10-09T16:26:11.669Z,6.47
2022-10-09T16:28:38.842Z,6.50
2022-10-09T16:31:06.572Z,6.68
2022-10-09T16:33:33.625Z,6.03
2022-10-09T16:36:12.022Z,5.85
2022-10-09T16:38:40.815Z,6.53
2022-10-09T16:41:13.366Z,6.28
2022-10-09T16:43:42.723Z,5.63
2022-10-09T16:46:27.435Z,5.95
2022-10-09T16:48:55.952Z,6.00
2022-10-09T16:51:28.351Z,5.97
2022-10-09T16:53:58.101Z,6.28
2022-10-09T16:56:27.695Z,6.22
2022-10-09T16:58:59.541Z,6.18
2022-10-09T17:01:27.763Z,5.47
2022-10-09T17:03:56.326Z,5.97
2022-10-09T17:06:24.690Z,6.07
2022-10-09T17:08:53.442Z,6.10
2022-10-09T17:11:21.329Z,6.28
2022-10-09T17:13:48.822Z,5.65
2022-10-09T17:16:19.534Z,6.15
2022-10-09T17:18:48.319Z,5.80
2022-10-09T17:21:17.326Z,5.35
2022-10-09T17:23:45.576Z,6.07
2022-10-09T17:26:15.368Z,5.55
2022-10-09T17:28:43.030Z,5.53
2022-10-09T17:31:14.492Z,5.65
2022-10-09T17:33:43.280Z,5.70
2022-10-09T17:36:11.606Z,6.15
2022-10-09T17:38:38.741Z,5.72
2022-10-09T17:41:11.267Z,5.13
2022-10-09T17:43:39.121Z,5.55
2022-10-09T17:46:06.718Z,5.72
2022-10-09T17:48:35.020Z,6.28
2022-10-09T17:51:06.433Z,5.88
2022-10-09T17:53:33.387Z,5.97
2022-10-09T17:56:04.177Z,5.10
2022-10-09T17:58:31.695Z,5.75
2022-10-09T18:00:58.928Z,5.63
2022-10-09T18:03:25.967Z,5.57
2022-10-09T18:05:53.046Z,6.15
2022-10-09T18:08:20.240Z,5.35
2022-10-09T18:10:47.407Z,6.03
2022-10-09T18:13:14.573Z,5.25
2022-10-09T18:15:44.038Z,5.90
2022-10-09T18:18:11.693Z,5.30
2022-10-09T18:20:40.178Z,5.85
2022-10-09T18:23:08.466Z,5.65
2022-10-09T18:25:36.201Z,5.55
2022-10-09T18:28:03.234Z,5.45
2022-10-09T18:30:30.393Z,5.15
2022-10-09T18:32:57.367Z,5.60
2022-10-09T18:35:25.822Z,5.10
2022-10-09T18:37:52.924Z,5.82
2022-10-09T18:40:20.271Z,5.30
2022-10-09T18:42:47.733Z,5.50
2022-10-09T18:45:16.445Z,5.45
2022-10-09T18:47:44.339Z,5.05
2022-10-09T18:50:13.812Z,5.47
2022-10-09T18:52:42.594Z,5.38
2022-10-09T18:55:12.703Z,5.95
2022-10-09T18:57:40.949Z,5.55
2022-10-09T19:00:08.912Z,4.88
2022-10-09T19:02:36.064Z,5.10
2022-10-09T19:05:03.567Z,5.97
2022-10-09T19:07:30.700Z,5.53
2022-10-09T19:09:57.795Z,5.03
2022-10-09T19:12:25.314Z,5.43
2022-10-09T19:14:52.568Z,5.15
2022-10-09T19:17:19.946Z,5.07
2022-10-09T19:19:47.010Z,4.85
2022-10-09T19:22:16.431Z,4.70
2022-10-09T19:24:45.363Z,5.10
2022-10-09T19:27:12.511Z,6.00
2022-10-09T19:29:39.571Z,4.55
2022-10-09T19:32:08.058Z,4.90
2022-10-09T19:34:35.067Z,4.90
2022-10-09T19:37:02.866Z,4.90
2022-10-09T19:39:30.016Z,5.70
2022-10-09T19:41:56.980Z,5.65
2022-10-09T19:44:24.062Z,4.70
2022-10-09T19:46:51.259Z,5.00
2022-10-09T19:49:19.609Z,4.72
2022-10-09T19:51:46.654Z,5.47
2022-10-09T19:54:13.731Z,5.13
2022-10-09T19:56:40.772Z,5.00
2022-10-09T19:59:09.334Z,4.22
2022-10-09T20:01:37.952Z,5.00
2022-10-09T20:04:08.249Z,5.28
2022-10-09T20:06:40.910Z,3.95
2022-10-09T20:09:09.497Z,4.70
2022-10-09T20:11:37.925Z,4.63
2022-10-09T20:14:05.473Z,4.45
2022-10-09T20:16:33.843Z,5.10
2022-10-09T20:19:01.822Z,5.43
2022-10-09T20:21:31.144Z,4.90
2022-10-09T20:24:00.499Z,4.90
2022-10-09T20:26:28.316Z,4.90
2022-10-09T20:28:55.567Z,5.10
2022-10-09T20:31:24.731Z,4.90
2022-10-09T20:33:52.641Z,5.47
2022-10-09T20:36:24.845Z,4.85
2022-10-09T20:38:51.938Z,5.10
2022-10-09T20:41:19.099Z,4.88
2022-10-09T20:43:50.827Z,4.68
2022-10-09T20:46:17.908Z,4.55
2022-10-09T20:48:45.398Z,4.35
2022-10-09T20:51:12.401Z,4.32
2022-10-09T20:53:39.528Z,4.22
2022-10-09T20:56:09.697Z,4.90
2022-10-09T20:58:36.830Z,4.88
2022-10-09T21:01:06.291Z,4.75
2022-10-09T21:03:34.204Z,4.85
2022-10-09T21:06:06.027Z,4.47
2022-10-09T21:08:33.408Z,4.65
2022-10-09T21:11:00.542Z,4.57
2022-10-09T21:13:27.575Z,4.60
2022-10-09T21:15:54.747Z,5.63
2022-10-09T21:18:21.902Z,5.28
2022-10-09T21:20:49.757Z,4.93
2022-10-09T21:23:18.805Z,4.70
2022-10-09T21:25:51.221Z,4.97
2022-10-09T21:28:22.267Z,4.35
2022-10-09T21:30:49.652Z,4.18
2022-10-09T21:33:18.289Z,4.93
2022-10-09T21:35:48.490Z,5.95
2022-10-09T21:38:18.084Z,5.20
2022-10-09T21:40:46.432Z,4.85
2022-10-09T21:43:14.071Z,4.35
2022-10-09T21:45:41.674Z,4.60
2022-10-09T21:48:08.807Z,4.57
2022-10-09T21:50:36.979Z,4.50
2022-10-09T21:53:04.568Z,4.75
2022-10-09T21:55:31.882Z,6.07
2022-10-09T21:57:58.994Z,5.22
2022-10-09T22:00:25.982Z,5.45
2022-10-09T22:02:53.455Z,4.68
2022-10-09T22:05:20.613Z,4.68
2022-10-09T22:07:47.537Z,4.25
2022-10-09T22:10:14.552Z,5.20
2022-10-09T22:12:41.653Z,5.07
2022-10-09T22:15:08.944Z,5.03
2022-10-09T22:17:35.919Z,4.60
2022-10-09T22:20:03.168Z,4.85
2022-10-09T22:22:30.163Z,5.35
2022-10-09T22:24:57.116Z,4.53
2022-10-09T22:27:24.095Z,4.68
2022-10-09T22:29:51.231Z,4.28
2022-10-09T22:32:18.221Z,4.55
2022-10-09T22:34:45.184Z,4.95
2022-10-09T22:37:12.187Z,5.28
2022-10-09T22:39:39.255Z,4.53
2022-10-09T22:42:06.232Z,4.45
2022-10-09T22:44:33.201Z,3.78
2022-10-09T22:47:00.324Z,4.03
2022-10-09T22:49:27.844Z,4.93
2022-10-09T22:51:54.896Z,4.47
2022-10-09T22:54:22.454Z,3.90
2022-10-09T22:56:49.498Z,4.47
2022-10-09T22:59:21.292Z,4.30
2022-10-09T23:01:55.130Z,4.43
2022-10-09T23:04:23.372Z,4.50
2022-10-09T23:06:52.378Z,3.90
2022-10-09T23:09:22.271Z,3.97
2022-10-09T23:11:49.598Z,4.35
2022-10-09T23:14:16.664Z,3.75
2022-10-09T23:16:43.938Z,3.92
2022-10-09T23:19:11.534Z,3.60
2022-10-09T23:21:40.915Z,3.88
2022-10-09T23:24:09.368Z,3.17
2022-10-09T23:26:46.333Z,3.80
2022-10-09T23:29:17.318Z,4.22
2022-10-09T23:31:45.110Z,3.65
2022-10-09T23:34:12.449Z,3.72
2022-10-09T23:36:39.528Z,3.83
2022-10-09T23:39:07.373Z,4.43
2022-10-09T23:41:34.781Z,3.42
2022-10-09T23:44:01.912Z,4.50
2022-10-09T23:46:31.878Z,3.95
2022-10-09T23:48:59.171Z,4.30
2022-10-09T23:51:27.188Z,3.90
2022-10-09T23:53:54.465Z,3.88
2022-10-09T23:56:39.597Z,3.80
2022-10-09T23:59:07.427Z,4.50
